createdAt,value
2019-02-18T00:02:28.436Z,24.50
2019-02-18T00:05:04.242Z,21.80
2019-02-18T00:07:38.835Z,22.87
2019-02-18T00:10:09.708Z,20.77
2019-02-18T00:12:40.359Z,22.63
2019-02-18T00:15:11.120Z,22.03
2019-02-18T00:17:42.550Z,20.83
2019-02-18T00:20:16.980Z,20.73
2019-02-18T00:22:52.042Z,24.57
2019-02-18T00:25:26.184Z,20.27
2019-02-18T00:27:57.534Z,20.27
2019-02-18T00:30:40.881Z,23.67
2019-02-18T00:33:20.410Z,24.37
2019-02-18T00:35:55.334Z,21.80
2019-02-18T00:38:28.317Z,21.63
2019-02-18T00:41:17.127Z,22.37
2019-02-18T00:43:54.503Z,22.43
2019-02-18T00:46:37.934Z,19.80
2019-02-18T00:49:14.226Z,20.23
2019-02-18T00:51:45.906Z,18.80
2019-02-18T00:54:18.615Z,21.87
2019-02-18T00:56:49.352Z,21.13
2019-02-18T00:59:20.869Z,21.00
2019-02-18T01:02:21.924Z,21.33
2019-02-18T01:05:17.847Z,19.13
2019-02-18T01:07:52.392Z,24.33
2019-02-18T01:10:29.328Z,22.67
2019-02-18T01:13:08.728Z,21.83
2019-02-18T01:15:49.872Z,24.90
2019-02-18T01:18:24.941Z,23.10
2019-02-18T01:21:08.020Z,23.50
2019-02-18T01:23:38.302Z,21.73
2019-02-18T01:26:10.168Z,22.50
2019-02-18T01:28:43.124Z,22.90
2019-02-18T01:31:15.181Z,20.20
2019-02-18T01:34:01.321Z,21.50
2019-02-18T01:36:38.818Z,22.00
2019-02-18T01:39:24.457Z,20.33
2019-02-18T01:42:17.233Z,24.03
2019-02-18T01:44:50.773Z,22.30
2019-02-18T01:47:23.750Z,21.50
2019-02-18T01:49:54.862Z,24.13
2019-02-18T01:52:25.142Z,23.43
2019-02-18T01:55:25.322Z,20.60
2019-02-18T01:58:09.230Z,23.93
2019-02-18T02:00:46.730Z,25.80
2019-02-18T02:03:25.557Z,26.47
2019-02-18T02:06:02.752Z,21.30
2019-02-18T02:08:50.141Z,23.97
2019-02-18T02:11:25.029Z,23.83
2019-02-18T02:14:00.017Z,23.10
2019-02-18T02:16:30.971Z,22.73
2019-02-18T02:19:04.013Z,20.67
2019-02-18T02:21:37.375Z,21.77
2019-02-18T02:24:08.351Z,30.20
2019-02-18T02:26:38.526Z,21.90
2019-02-18T02:29:12.432Z,21.70
2019-02-18T02:31:44.329Z,24.10
2019-02-18T02:34:18.055Z,21.13
2019-02-18T02:36:49.208Z,28.93
2019-02-18T02:39:19.870Z,22.63
2019-02-18T02:41:50.850Z,23.10
2019-02-18T02:44:23.933Z,21.13
2019-02-18T02:46:56.382Z,20.90
2019-02-18T02:49:26.613Z,21.53
2019-02-18T02:51:59.721Z,22.37
2019-02-18T02:54:31.068Z,24.00
2019-02-18T02:57:03.886Z,20.60
2019-02-18T02:59:37.110Z,21.67
2019-02-18T03:02:10.529Z,20.83
2019-02-18T03:04:43.498Z,19.50
2019-02-18T03:07:14.146Z,20.63
2019-02-18T03:09:45.869Z,21.03
2019-02-18T03:12:17.919Z,22.33
2019-02-18T03:14:49.388Z,19.97
2019-02-18T03:17:19.613Z,20.93
2019-02-18T03:19:52.883Z,19.80
2019-02-18T03:22:24.146Z,22.47
2019-02-18T03:25:27.015Z,23.53
2019-02-18T03:28:44.620Z,19.77
2019-02-18T03:31:25.318Z,20.77
2019-02-18T03:34:24.905Z,22.23
2019-02-18T03:36:59.432Z,19.93
2019-02-18T03:39:32.901Z,21.00
2019-02-18T03:42:09.807Z,22.03
2019-02-18T03:44:42.918Z,24.97
2019-02-18T03:47:18.072Z,20.50
2019-02-18T03:49:49.007Z,21.57
2019-02-18T03:52:19.353Z,19.70
2019-02-18T03:54:51.111Z,21.27
2019-02-18T03:57:26.915Z,21.87
2019-02-18T03:59:59.756Z,21.47
2019-02-18T04:06:02.922Z,21.17
2019-02-18T04:08:42.893Z,21.33
2019-02-18T04:11:08.303Z,21.30
2019-02-18T04:13:38.876Z,22.73
2019-02-18T04:16:14.215Z,22.63
2019-02-18T04:18:53.732Z,20.83
2019-02-18T04:21:31.210Z,21.63
2019-02-18T04:24:02.284Z,20.03
2019-02-18T04:26:34.338Z,18.80
2019-02-18T04:29:05.422Z,22.50
2019-02-18T04:31:38.589Z,21.50
2019-02-18T04:34:12.271Z,19.10
2019-02-18T04:36:44.849Z,20.50
2019-02-18T04:39:15.550Z,24.13
2019-02-18T04:41:45.759Z,24.13
2019-02-18T04:44:16.422Z,21.33
2019-02-18T04:46:53.311Z,19.43
2019-02-18T04:49:35.927Z,18.37
2019-02-18T04:52:08.636Z,20.47
2019-02-18T04:54:40.553Z,18.90
2019-02-18T04:57:13.327Z,23.10
2019-02-18T04:59:48.071Z,17.70
2019-02-18T05:02:22.639Z,18.53
2019-02-18T05:04:54.144Z,18.67
2019-02-18T05:07:26.505Z,20.27
2019-02-18T05:09:59.542Z,24.07
2019-02-18T05:12:33.253Z,19.23
2019-02-18T05:15:06.427Z,20.20
2019-02-18T05:17:42.044Z,19.80
2019-02-18T05:20:15.289Z,19.83
2019-02-18T05:22:49.831Z,26.07
2019-02-18T05:25:22.811Z,23.37
2019-02-18T05:27:57.754Z,19.80
2019-02-18T05:30:34.963Z,23.20
2019-02-18T05:33:11.046Z,21.10
2019-02-18T05:35:44.289Z,20.83
2019-02-18T05:38:16.788Z,20.47
2019-02-18T05:40:48.960Z,21.60
2019-02-18T05:43:20.974Z,19.27
2019-02-18T05:45:57.321Z,23.43
2019-02-18T05:48:29.302Z,20.17
2019-02-18T05:51:02.743Z,22.83
2019-02-18T05:53:33.727Z,20.97
2019-02-18T05:56:12.736Z,24.57
2019-02-18T06:02:39.347Z,21.77
2019-02-18T06:05:13.974Z,22.40
2019-02-18T06:07:47.628Z,26.17
2019-02-18T06:10:20.028Z,23.47
2019-02-18T06:12:54.853Z,20.37
2019-02-18T06:15:28.372Z,23.50
2019-02-18T06:18:00.621Z,26.17
2019-02-18T06:20:31.794Z,26.53
2019-02-18T06:23:03.354Z,22.37
2019-02-18T06:25:34.857Z,25.83
2019-02-18T06:28:08.333Z,26.70
2019-02-18T06:30:43.276Z,25.73
2019-02-18T06:33:16.434Z,20.00
2019-02-18T06:35:49.388Z,22.50
2019-02-18T06:38:20.552Z,21.37
2019-02-18T06:40:52.147Z,24.93
2019-02-18T06:43:23.409Z,22.50
2019-02-18T06:46:05.353Z,19.93
2019-02-18T06:48:39.581Z,22.97
2019-02-18T06:51:11.086Z,21.93
2019-02-18T06:53:44.522Z,23.57
2019-02-18T06:56:26.497Z,21.27
2019-02-18T06:59:09.282Z,27.47
2019-02-18T07:01:59.733Z,20.90
2019-02-18T07:04:51.217Z,22.67
2019-02-18T07:07:30.086Z,26.10
2019-02-18T07:10:11.778Z,27.63
2019-02-18T07:12:46.697Z,26.67
2019-02-18T07:15:17.226Z,26.60
2019-02-18T07:17:47.404Z,29.93
2019-02-18T07:20:18.300Z,22.67
2019-02-18T07:22:49.761Z,28.10
2019-02-18T07:25:20.780Z,29.03
2019-02-18T07:27:51.402Z,25.40
2019-02-18T07:30:25.359Z,36.90
2019-02-18T07:32:57.209Z,29.73
2019-02-18T07:35:29.286Z,27.33
2019-02-18T07:38:02.118Z,31.40
2019-02-18T07:40:34.911Z,22.17
2019-02-18T07:43:08.411Z,27.73
2019-02-18T07:45:40.846Z,26.30
2019-02-18T07:48:11.389Z,29.47
2019-02-18T07:50:45.545Z,25.27
2019-02-18T07:53:17.614Z,23.57
2019-02-18T07:55:49.739Z,32.03
2019-02-18T07:58:20.313Z,27.30
2019-02-18T08:00:53.912Z,28.10
2019-02-18T08:03:25.881Z,26.20
2019-02-18T08:05:56.705Z,31.10
2019-02-18T08:08:28.417Z,35.30
2019-02-18T08:11:01.310Z,29.00
2019-02-18T08:13:34.746Z,31.70
2019-02-18T08:16:10.384Z,27.90
2019-02-18T08:18:47.483Z,29.93
2019-02-18T08:21:18.653Z,25.43
2019-02-18T08:24:00.259Z,27.43
2019-02-18T08:26:33.681Z,25.40
2019-02-18T08:29:07.915Z,22.40
2019-02-18T08:31:40.497Z,24.90
2019-02-18T08:34:10.752Z,24.87
2019-02-18T08:36:48.436Z,25.03
2019-02-18T08:39:25.672Z,26.63
2019-02-18T08:41:58.967Z,22.73
2019-02-18T08:44:33.519Z,30.67
2019-02-18T08:47:05.454Z,25.03
2019-02-18T08:49:40.387Z,25.93
2019-02-18T08:52:12.706Z,29.90
2019-02-18T08:54:56.262Z,30.23
2019-02-18T08:57:23.225Z,30.93
2019-02-18T08:59:55.722Z,27.47
2019-02-18T09:02:27.403Z,23.83
2019-02-18T09:04:59.016Z,23.20
2019-02-18T09:07:31.665Z,26.03
2019-02-18T09:10:04.591Z,21.60
2019-02-18T09:12:37.309Z,25.30
2019-02-18T09:15:10.588Z,28.63
2019-02-18T09:17:42.976Z,26.03
2019-02-18T09:20:14.731Z,26.17
2019-02-18T09:23:04.771Z,20.87
2019-02-18T09:25:45.426Z,23.43
2019-02-18T09:28:18.775Z,21.90
2019-02-18T09:30:55.404Z,21.47
2019-02-18T09:33:26.117Z,27.50
2019-02-18T09:36:04.679Z,22.10
2019-02-18T09:38:36.594Z,25.73
2019-02-18T09:41:08.865Z,20.70
2019-02-18T09:43:43.048Z,27.93
2019-02-18T09:46:14.539Z,26.33
2019-02-18T09:48:44.824Z,26.93
2019-02-18T09:51:19.640Z,22.57
2019-02-18T09:53:50.202Z,24.93
2019-02-18T09:56:23.060Z,22.00
2019-02-18T09:58:54.506Z,24.20
2019-02-18T10:01:26.011Z,22.93
2019-02-18T10:03:56.361Z,27.53
2019-02-18T10:06:26.832Z,25.40
2019-02-18T10:08:57.947Z,27.40
2019-02-18T10:11:29.028Z,24.60
2019-02-18T10:14:01.212Z,26.83
2019-02-18T10:16:31.723Z,24.97
2019-02-18T10:19:03.408Z,24.97
2019-02-18T10:21:36.274Z,23.60
2019-02-18T10:24:08.299Z,20.33
2019-02-18T10:26:42.043Z,20.70
2019-02-18T10:29:13.165Z,26.77
2019-02-18T10:31:45.832Z,23.00
2019-02-18T10:34:18.355Z,21.17
2019-02-18T10:36:53.685Z,22.93
2019-02-18T10:39:26.169Z,18.60
2019-02-18T10:41:57.228Z,30.13
2019-02-18T10:44:34.491Z,24.10
2019-02-18T10:47:10.334Z,22.73
2019-02-18T10:49:41.779Z,26.43
2019-02-18T10:52:18.290Z,20.43
2019-02-18T10:54:55.346Z,30.70
2019-02-18T10:57:38.146Z,20.00
2019-02-18T11:00:12.508Z,18.20
2019-02-18T11:02:46.985Z,17.87
2019-02-18T11:05:30.451Z,17.57
2019-02-18T11:08:03.727Z,18.33
2019-02-18T11:10:37.710Z,20.87
2019-02-18T11:13:11.992Z,23.37
2019-02-18T11:15:45.512Z,21.23
2019-02-18T11:18:17.051Z,19.27
2019-02-18T11:20:48.585Z,18.17
2019-02-18T11:23:21.031Z,20.07
2019-02-18T11:25:54.119Z,21.90
2019-02-18T11:28:24.786Z,18.93
2019-02-18T11:31:04.823Z,20.53
2019-02-18T11:33:40.301Z,17.77
2019-02-18T11:36:12.457Z,20.73
2019-02-18T11:38:44.830Z,21.73
2019-02-18T11:41:26.845Z,19.93
2019-02-18T11:43:54.550Z,18.53
2019-02-18T11:46:30.925Z,20.00
2019-02-18T11:49:05.552Z,18.53
2019-02-18T11:51:37.866Z,19.50
2019-02-18T11:54:09.726Z,21.80
2019-02-18T11:56:42.958Z,16.87
2019-02-18T11:59:24.242Z,22.87
2019-02-18T12:01:50.223Z,20.97
2019-02-18T12:04:22.392Z,16.90
2019-02-18T12:06:58.990Z,20.90
2019-02-18T12:09:30.045Z,17.00
2019-02-18T12:12:01.792Z,14.77
2019-02-18T12:14:37.443Z,18.40
2019-02-18T12:17:08.035Z,17.50
2019-02-18T12:19:41.313Z,23.17
2019-02-18T12:22:16.262Z,16.63
2019-02-18T12:24:56.357Z,16.60
2019-02-18T12:27:26.837Z,18.27
2019-02-18T12:29:58.532Z,13.80
2019-02-18T12:32:33.463Z,18.67
2019-02-18T12:38:03.635Z,19.37
2019-02-18T12:40:34.918Z,19.23
2019-02-18T12:43:07.033Z,16.48
2019-02-18T12:45:39.273Z,12.73
2019-02-18T12:48:29.294Z,21.57
2019-02-18T12:51:05.145Z,13.83
2019-02-18T12:53:48.817Z,17.25
2019-02-18T12:56:21.053Z,14.85
2019-02-18T12:58:54.973Z,19.55
2019-02-18T13:01:28.302Z,21.65
2019-02-18T13:04:09.739Z,14.93
2019-02-18T13:06:44.733Z,14.75
2019-02-18T13:09:20.800Z,16.60
2019-02-18T13:11:58.725Z,13.62
2019-02-18T13:14:28.655Z,13.45
2019-02-18T13:17:16.636Z,15.15
2019-02-18T13:19:55.006Z,16.52
2019-02-18T13:22:25.537Z,12.65
2019-02-18T13:24:56.788Z,11.95
2019-02-18T13:27:28.136Z,14.18
2019-02-18T13:30:06.211Z,12.78
2019-02-18T13:32:42.837Z,17.25
2019-02-18T13:35:17.900Z,14.00
2019-02-18T13:37:51.077Z,14.23
2019-02-18T13:40:37.801Z,17.65
2019-02-18T13:43:20.504Z,13.88
2019-02-18T13:45:58.233Z,15.30
2019-02-18T13:48:30.612Z,16.37
2019-02-18T13:51:06.745Z,15.90
2019-02-18T13:53:39.479Z,19.48
2019-02-18T13:56:11.391Z,15.88
2019-02-18T13:58:43.172Z,15.23
2019-02-18T14:01:20.221Z,16.77
2019-02-18T14:03:57.921Z,12.77
2019-02-18T14:06:29.029Z,15.93
2019-02-18T14:09:01.602Z,12.00
2019-02-18T14:11:34.271Z,11.67
2019-02-18T14:14:07.700Z,12.73
2019-02-18T14:16:43.436Z,13.20
2019-02-18T14:19:14.371Z,11.00
2019-02-18T14:21:48.396Z,14.13
2019-02-18T14:24:22.321Z,11.57
2019-02-18T14:27:03.745Z,10.27
2019-02-18T14:29:37.732Z,10.87
2019-02-18T14:32:09.750Z,13.60
2019-02-18T14:34:42.596Z,11.43
2019-02-18T14:37:15.780Z,11.20
2019-02-18T14:39:49.857Z,12.63
2019-02-18T14:42:24.504Z,15.23
2019-02-18T14:44:56.216Z,14.33
2019-02-18T14:47:28.978Z,8.93
2019-02-18T14:50:03.118Z,15.07
2019-02-18T14:52:34.387Z,20.93
2019-02-18T14:55:06.689Z,12.37
2019-02-18T14:57:41.306Z,10.10
2019-02-18T15:00:24.368Z,12.33
2019-02-18T15:03:03.035Z,12.63
2019-02-18T15:05:36.778Z,8.57
2019-02-18T15:08:10.965Z,7.33
2019-02-18T15:10:42.610Z,8.17
2019-02-18T15:13:18.777Z,7.37
2019-02-18T15:15:51.192Z,6.87
2019-02-18T15:18:24.157Z,10.23
2019-02-18T15:20:55.447Z,11.17
2019-02-18T15:23:27.099Z,10.20
2019-02-18T15:26:02.387Z,7.10
2019-02-18T15:28:35.066Z,10.17
2019-02-18T15:31:08.590Z,9.83
2019-02-18T15:33:44.751Z,7.67
2019-02-18T15:36:16.208Z,11.17
2019-02-18T15:38:47.334Z,11.13
2019-02-18T15:41:19.092Z,8.67
2019-02-18T15:43:52.257Z,10.03
2019-02-18T15:46:26.582Z,10.50
2019-02-18T15:48:59.775Z,13.90
2019-02-18T15:51:30.687Z,10.37
2019-02-18T15:54:01.854Z,10.80
2019-02-18T15:56:34.987Z,12.13
2019-02-18T15:59:06.528Z,13.83
2019-02-18T16:01:41.996Z,11.83
2019-02-18T16:04:17.948Z,8.00
2019-02-18T16:06:53.289Z,15.07
2019-02-18T16:09:24.479Z,20.67
2019-02-18T16:11:55.070Z,12.67
2019-02-18T16:14:31.271Z,15.90
2019-02-18T16:17:03.875Z,13.07
2019-02-18T16:19:56.340Z,12.00
2019-02-18T16:22:30.284Z,11.07
2019-02-18T16:25:03.942Z,11.00
2019-02-18T16:27:40.052Z,12.20
2019-02-18T16:30:16.507Z,15.60
2019-02-18T16:32:53.655Z,12.43
2019-02-18T16:35:31.551Z,18.23
2019-02-18T16:38:07.030Z,11.37
2019-02-18T16:40:42.495Z,12.40
2019-02-18T16:43:12.891Z,14.27
2019-02-18T16:45:46.210Z,16.03
2019-02-18T16:48:20.956Z,13.77
2019-02-18T16:50:53.023Z,14.77
2019-02-18T16:53:24.312Z,13.43
2019-02-18T16:55:57.181Z,15.33
2019-02-18T17:02:10.709Z,19.50
2019-02-18T17:04:56.767Z,12.67
2019-02-18T17:07:33.072Z,15.43
2019-02-18T17:10:14.531Z,14.73
2019-02-18T17:12:49.599Z,16.17
2019-02-18T17:15:21.826Z,14.60
2019-02-18T17:17:56.985Z,18.30
2019-02-18T17:20:29.635Z,22.90
2019-02-18T17:23:03.134Z,14.80
2019-02-18T17:25:39.936Z,18.13
2019-02-18T17:28:15.279Z,17.00
2019-02-18T17:30:47.699Z,15.53
2019-02-18T17:33:27.704Z,15.30
2019-02-18T17:35:58.683Z,17.63
2019-02-18T17:38:35.698Z,13.40
2019-02-18T17:44:04.738Z,14.87
2019-02-18T17:46:52.223Z,20.70
2019-02-18T17:49:34.384Z,14.00
2019-02-18T17:52:12.784Z,18.33
2019-02-18T17:55:25.454Z,17.70
2019-02-18T17:58:14.456Z,15.13
2019-02-18T18:04:01.379Z,19.37
2019-02-18T18:06:35.898Z,16.27
2019-02-18T18:09:14.379Z,17.57
2019-02-18T18:12:10.056Z,22.10
2019-02-18T18:14:46.979Z,23.20
2019-02-18T18:17:22.133Z,22.07
2019-02-18T18:19:58.551Z,20.80
2019-02-18T18:22:32.181Z,20.07
2019-02-18T18:25:03.786Z,17.17
2019-02-18T18:27:34.803Z,16.30
2019-02-18T18:30:13.388Z,17.80
2019-02-18T18:32:47.333Z,18.07
2019-02-18T18:35:18.690Z,17.13
2019-02-18T18:37:49.726Z,18.33
2019-02-18T18:40:25.428Z,16.67
2019-02-18T18:43:04.191Z,15.73
2019-02-18T18:45:53.591Z,17.00
2019-02-18T18:48:24.920Z,19.93
2019-02-18T18:50:56.139Z,21.13
2019-02-18T18:53:28.230Z,20.07
2019-02-18T18:55:59.912Z,19.00
2019-02-18T18:58:32.524Z,19.43
2019-02-18T19:01:12.438Z,17.43
2019-02-18T19:03:45.236Z,21.70
2019-02-18T19:06:21.999Z,18.60
2019-02-18T19:08:54.377Z,17.83
2019-02-18T19:11:24.997Z,19.37
2019-02-18T19:13:55.922Z,20.20
2019-02-18T19:16:36.238Z,21.10
2019-02-18T19:19:08.421Z,19.67
2019-02-18T19:21:40.380Z,20.57
2019-02-18T19:24:11.051Z,17.30
2019-02-18T19:26:42.364Z,19.83
2019-02-18T19:29:18.242Z,19.57
2019-02-18T19:31:51.019Z,19.83
2019-02-18T19:34:25.586Z,19.77
2019-02-18T19:36:58.717Z,24.17
2019-02-18T19:39:32.155Z,23.33
2019-02-18T19:42:17.927Z,21.93
2019-02-18T19:45:05.680Z,18.20
2019-02-18T19:47:39.313Z,23.40
2019-02-18T19:50:18.247Z,21.73
2019-02-18T19:52:58.870Z,16.63
2019-02-18T19:55:31.198Z,24.67
2019-02-18T19:58:12.249Z,19.03
2019-02-18T20:00:49.977Z,18.70
2019-02-18T20:03:25.761Z,20.47
2019-02-18T20:06:07.564Z,22.73
2019-02-18T20:08:48.638Z,24.63
2019-02-18T20:11:25.867Z,21.57
2019-02-18T20:18:59.705Z,33.17
2019-02-18T20:21:56.489Z,30.57
2019-02-18T20:24:36.281Z,28.53
2019-02-18T20:27:28.463Z,27.73
2019-02-18T20:30:00.954Z,25.07
2019-02-18T20:32:42.656Z,26.50
2019-02-18T20:35:26.060Z,21.23
2019-02-18T20:38:37.004Z,21.47
2019-02-18T20:41:14.398Z,22.67
2019-02-18T20:43:51.768Z,19.93
2019-02-18T20:46:24.655Z,17.00
2019-02-18T20:48:59.675Z,17.23
2019-02-18T20:51:49.222Z,16.67
2019-02-18T20:54:23.517Z,18.63
2019-02-18T20:56:58.366Z,17.10
2019-02-18T20:59:39.468Z,15.07
2019-02-18T21:02:13.831Z,13.07
2019-02-18T21:04:51.235Z,18.47
2019-02-18T21:07:38.563Z,16.77
2019-02-18T21:10:13.404Z,23.33
2019-02-18T21:12:47.130Z,15.27
2019-02-18T21:15:19.388Z,14.97
2019-02-18T21:17:50.527Z,16.13
2019-02-18T21:20:25.467Z,14.37
2019-02-18T21:22:57.231Z,18.63
2019-02-18T21:25:45.453Z,19.27
2019-02-18T21:28:18.331Z,19.47
2019-02-18T21:31:08.060Z,18.27
2019-02-18T21:33:42.875Z,18.93
2019-02-18T21:36:16.268Z,18.17
2019-02-18T21:38:50.378Z,19.70
2019-02-18T21:41:38.993Z,19.03
2019-02-18T21:44:25.001Z,14.90
2019-02-18T21:46:52.758Z,15.47
2019-02-18T21:49:27.562Z,20.07
2019-02-18T21:51:58.963Z,18.57
2019-02-18T21:54:53.958Z,17.90
2019-02-18T21:57:31.759Z,15.83
2019-02-18T22:00:17.736Z,18.17
2019-02-18T22:02:55.919Z,18.20
2019-02-18T22:05:29.408Z,18.80
2019-02-18T22:08:07.578Z,20.23
2019-02-18T22:10:41.919Z,19.33
2019-02-18T22:13:26.172Z,18.37
2019-02-18T22:16:00.478Z,16.13
2019-02-18T22:18:37.075Z,17.07
2019-02-18T22:21:11.748Z,14.87
2019-02-18T22:23:47.177Z,17.83
2019-02-18T22:29:21.519Z,19.33
2019-02-18T22:31:56.980Z,20.83
2019-02-18T22:34:29.746Z,16.57
2019-02-18T22:37:13.941Z,20.97
2019-02-18T22:39:46.555Z,15.17
2019-02-18T22:42:24.806Z,20.60
2019-02-18T22:44:55.933Z,19.53
2019-02-18T22:47:27.833Z,17.37
2019-02-18T22:50:01.655Z,18.37
2019-02-18T22:52:35.549Z,15.13
2019-02-18T22:55:16.039Z,17.87
2019-02-18T22:57:53.373Z,17.20
2019-02-18T23:00:58.764Z,18.67
2019-02-18T23:03:30.042Z,15.03
2019-02-18T23:06:21.459Z,16.20
2019-02-18T23:08:56.950Z,16.50
2019-02-18T23:11:45.315Z,18.13
2019-02-18T23:14:17.249Z,27.67
2019-02-18T23:16:50.100Z,14.03
2019-02-18T23:19:23.474Z,19.70
2019-02-18T23:21:59.190Z,20.53
2019-02-18T23:24:34.703Z,14.57
2019-02-18T23:27:07.970Z,14.53
2019-02-18T23:29:41.904Z,17.20
2019-02-18T23:32:18.815Z,13.77
2019-02-18T23:34:54.231Z,18.07
2019-02-18T23:37:27.956Z,14.47
2019-02-18T23:39:59.471Z,13.17
2019-02-18T23:42:30.729Z,13.90
2019-02-18T23:45:05.516Z,19.90
2019-02-18T23:47:42.377Z,13.70
2019-02-18T23:50:15.878Z,18.10
2019-02-18T23:52:48.116Z,15.77
2019-02-18T23:55:21.829Z,17.33
2019-02-18T23:57:56.335Z,15.87
